Time;durP1;ratioP1;P1;durP2;ratioP2;P2;SDS_P1;SDS_P2;PMS_P1;PMS_P2;Temp;Humidity;BMP_temperature;BMP_pressure;BME280_temperature;BME280_humidity;BME280_pressure;Samples;Min_cycle;Max_cycle;Signal;HPM_P1;HPM_P2
2021/09/11 00:00:51;;;;;;;3.87;2.20;;;;;;;;;;4995919;28;20292;-69
2021/09/11 00:03:16;;;;;;;2.58;1.90;;;;;;;;;;4996396;28;20319;-69
2021/09/11 00:05:41;;;;;;;2.92;2.22;;;;;;;;;;4996627;28;20026;-69
2021/09/11 00:08:06;;;;;;;6.15;2.22;;;;;;;;;;4995526;28;20026;-68
2021/09/11 00:10:32;;;;;;;4.00;2.03;;;;;;;;;;5010952;28;20129;-68
2021/09/11 00:12:58;;;;;;;2.67;1.90;;;;;;;;;;4996235;28;20019;-69
2021/09/11 00:15:25;;;;;;;3.55;2.20;;;;;;;;;;4996301;28;20025;-68
2021/09/11 00:17:51;;;;;;;2.42;1.83;;;;;;;;;;4991351;28;20050;-68
2021/09/11 00:20:17;;;;;;;3.45;2.10;;;;;;;;;;4976566;28;20015;-69
2021/09/11 00:22:42;;;;;;;2.83;2.00;;;;;;;;;;4978268;28;20037;-68
2021/09/11 00:25:07;;;;;;;2.40;2.03;;;;;;;;;;4995691;28;20046;-68
2021/09/11 00:27:35;;;;;;;4.15;2.42;;;;;;;;;;4995234;28;20098;-68
2021/09/11 00:30:03;;;;;;;7.85;2.20;;;;;;;;;;4995085;28;20373;-68
2021/09/11 00:32:28;;;;;;;5.28;2.20;;;;;;;;;;4994830;28;20463;-68
2021/09/11 00:34:53;;;;;;;3.47;2.20;;;;;;;;;;4994645;28;20023;-68
2021/09/11 00:37:20;;;;;;;4.10;2.23;;;;;;;;;;4994964;28;20498;-69
2021/09/11 00:39:46;;;;;;;5.47;2.22;;;;;;;;;;4995524;28;20269;-68
2021/09/11 00:42:11;;;;;;;3.10;2.17;;;;;;;;;;4994906;28;20034;-69
2021/09/11 00:44:36;;;;;;;4.70;2.60;;;;;;;;;;4995653;28;20526;-68
2021/09/11 00:47:01;;;;;;;5.25;2.38;;;;;;;;;;4994951;28;20376;-68
2021/09/11 00:49:26;;;;;;;3.50;2.17;;;;;;;;;;4995413;28;20098;-68
2021/09/11 00:51:52;;;;;;;3.50;2.22;;;;;;;;;;4994986;28;20459;-69
2021/09/11 00:54:19;;;;;;;5.88;2.38;;;;;;;;;;5006867;28;20352;-68
2021/09/11 00:56:47;;;;;;;3.38;2.03;;;;;;;;;;4998711;28;20378;-68
2021/09/11 00:59:12;;;;;;;5.22;2.28;;;;;;;;;;4994232;28;20100;-68
2021/09/11 01:01:40;;;;;;;3.53;2.13;;;;;;;;;;5009636;28;20447;-68
2021/09/11 01:04:05;;;;;;;3.55;2.10;;;;;;;;;;4994528;28;20325;-69
2021/09/11 01:06:31;;;;;;;3.70;2.40;;;;;;;;;;4994622;28;20069;-68
2021/09/11 01:08:59;;;;;;;4.90;2.40;;;;;;;;;;4994916;28;20336;-68
2021/09/11 01:11:24;;;;;;;3.97;2.20;;;;;;;;;;4995299;28;20026;-69
2021/09/11 01:13:49;;;;;;;4.38;2.45;;;;;;;;;;4995275;28;20583;-69
2021/09/11 01:16:14;;;;;;;4.22;2.10;;;;;;;;;;4994243;28;20038;-69
2021/09/11 01:18:42;;;;;;;4.57;2.22;;;;;;;;;;4995045;28;20027;-68
2021/09/11 01:21:07;;;;;;;2.45;2.25;;;;;;;;;;4995071;28;20027;-69
2021/09/11 01:23:34;;;;;;;3.53;2.30;;;;;;;;;;4994403;28;20096;-68
2021/09/11 01:25:59;;;;;;;4.60;2.40;;;;;;;;;;4994976;28;20173;-69
2021/09/11 01:28:27;;;;;;;4.50;2.22;;;;;;;;;;4993988;28;20124;-68
2021/09/11 01:30:55;;;;;;;4.13;2.20;;;;;;;;;;4994215;28;20509;-69
2021/09/11 01:33:23;;;;;;;4.65;2.35;;;;;;;;;;4994523;28;20018;-68
2021/09/11 01:35:48;;;;;;;4.38;2.25;;;;;;;;;;4994067;28;20022;-68
2021/09/11 01:38:13;;;;;;;6.90;2.50;;;;;;;;;;4993353;28;20033;-68
2021/09/11 01:40:41;;;;;;;4.63;2.30;;;;;;;;;;4992743;28;20044;-69
2021/09/11 01:43:06;;;;;;;4.70;2.30;;;;;;;;;;4993391;28;20277;-68
2021/09/11 01:45:31;;;;;;;4.50;2.37;;;;;;;;;;5009770;28;20018;-68
2021/09/11 01:47:57;;;;;;;4.93;2.27;;;;;;;;;;4994608;28;20869;-68
2021/09/11 01:50:22;;;;;;;2.90;2.23;;;;;;;;;;4993867;28;20285;-69
2021/09/11 01:52:48;;;;;;;4.15;2.60;;;;;;;;;;4994318;28;20252;-69
2021/09/11 01:55:15;;;;;;;4.10;2.55;;;;;;;;;;4993762;28;20051;-69
2021/09/11 01:57:41;;;;;;;5.95;2.40;;;;;;;;;;4992874;28;20026;-69
2021/09/11 02:00:09;;;;;;;4.70;2.65;;;;;;;;;;4994060;28;20480;-69
2021/09/11 02:02:34;;;;;;;3.38;2.75;;;;;;;;;;5009221;28;20672;-68
2021/09/11 02:05:00;;;;;;;3.60;2.53;;;;;;;;;;4994400;28;20085;-68
2021/09/11 02:07:25;;;;;;;3.47;2.53;;;;;;;;;;4994212;28;20038;-68
2021/09/11 02:09:50;;;;;;;3.97;2.65;;;;;;;;;;4994250;28;20328;-69
2021/09/11 02:12:15;;;;;;;4.65;2.50;;;;;;;;;;4994179;28;20022;-68
2021/09/11 02:14:41;;;;;;;2.70;2.17;;;;;;;;;;4994180;28;20022;-68
2021/09/11 02:17:06;;;;;;;6.23;2.77;;;;;;;;;;4994316;28;20105;-69
2021/09/11 02:19:34;;;;;;;4.10;2.70;;;;;;;;;;4993838;28;20575;-68
2021/09/11 02:22:00;;;;;;;3.53;2.90;;;;;;;;;;5009485;28;20026;-68
2021/09/11 02:24:25;;;;;;;8.43;2.60;;;;;;;;;;4993397;28;20060;-68
2021/09/11 02:26:51;;;;;;;5.03;2.58;;;;;;;;;;4994050;28;20050;-68
2021/09/11 02:29:18;;;;;;;6.57;2.83;;;;;;;;;;5008492;28;20363;-68
2021/09/11 02:31:43;;;;;;;3.58;2.60;;;;;;;;;;4994009;28;20038;-69
2021/09/11 02:34:09;;;;;;;4.15;2.90;;;;;;;;;;4993997;28;20050;-69
2021/09/11 02:36:34;;;;;;;5.87;2.80;;;;;;;;;;4993310;28;20022;-69
2021/09/11 02:38:59;;;;;;;8.75;2.95;;;;;;;;;;4993474;28;20269;-69
2021/09/11 02:41:27;;;;;;;3.22;2.58;;;;;;;;;;5009273;28;20387;-69
2021/09/11 02:43:54;;;;;;;4.97;2.72;;;;;;;;;;4993889;28;20454;-69
2021/09/11 02:46:22;;;;;;;8.07;2.63;;;;;;;;;;4993253;28;20034;-69
2021/09/11 02:48:49;;;;;;;3.90;2.38;;;;;;;;;;4993857;28;20089;-69
2021/09/11 02:51:15;;;;;;;6.75;2.70;;;;;;;;;;4993989;28;20033;-69
2021/09/11 02:53:40;;;;;;;2.88;2.25;;;;;;;;;;4993558;28;20066;-69
2021/09/11 02:56:10;;;;;;;9.70;2.45;;;;;;;;;;4993679;28;20108;-69
2021/09/11 02:58:38;;;;;;;4.70;2.80;;;;;;;;;;4993728;28;20022;-69
2021/09/11 03:01:05;;;;;;;3.50;2.35;;;;;;;;;;4993363;28;20138;-69
2021/09/11 03:03:30;;;;;;;4.10;2.53;;;;;;;;;;4993626;28;20018;-68
2021/09/11 03:05:55;;;;;;;5.00;2.50;;;;;;;;;;4993129;28;20023;-68
2021/09/11 03:08:21;;;;;;;5.60;2.43;;;;;;;;;;4992960;28;20490;-68
2021/09/11 03:10:47;;;;;;;4.13;2.80;;;;;;;;;;4997222;28;20254;-69
2021/09/11 03:13:12;;;;;;;5.28;2.67;;;;;;;;;;4997594;28;20381;-69
2021/09/11 03:15:43;;;;;;;5.53;2.50;;;;;;;;;;4996483;28;20495;-68
2021/09/11 03:18:08;;;;;;;3.85;2.78;;;;;;;;;;4989949;28;20302;-68
2021/09/11 03:20:33;;;;;;;3.00;2.20;;;;;;;;;;4993687;28;20022;-69
2021/09/11 03:23:03;;;;;;;8.20;2.47;;;;;;;;;;4991055;28;20023;-68
2021/09/11 03:25:31;;;;;;;3.95;2.90;;;;;;;;;;5007685;28;20308;-68
2021/09/11 03:27:58;;;;;;;3.25;2.70;;;;;;;;;;4995478;28;20022;-68
2021/09/11 03:30:23;;;;;;;4.38;3.17;;;;;;;;;;4995734;28;20018;-69
2021/09/11 03:32:49;;;;;;;6.93;3.45;;;;;;;;;;4993790;28;20102;-69
2021/09/11 03:35:14;;;;;;;6.22;3.20;;;;;;;;;;4995548;28;20105;-69
2021/09/11 03:37:39;;;;;;;7.28;4.13;;;;;;;;;;4994153;28;20486;-69
2021/09/11 03:40:05;;;;;;;4.50;3.58;;;;;;;;;;4992674;28;20018;-69
2021/09/11 03:42:30;;;;;;;5.95;3.97;;;;;;;;;;4995214;28;20029;-69
2021/09/11 03:44:55;;;;;;;6.67;3.73;;;;;;;;;;4995398;28;20510;-68
2021/09/11 03:47:21;;;;;;;5.43;4.10;;;;;;;;;;4993552;28;20362;-68
2021/09/11 03:49:46;;;;;;;7.73;4.23;;;;;;;;;;4995429;28;20033;-68
2021/09/11 03:52:13;;;;;;;7.47;4.47;;;;;;;;;;4995618;28;20265;-68
2021/09/11 03:54:39;;;;;;;6.00;4.20;;;;;;;;;;4995199;28;20262;-69
2021/09/11 03:57:04;;;;;;;7.23;4.33;;;;;;;;;;4995578;28;20014;-68
2021/09/11 03:59:29;;;;;;;8.27;3.60;;;;;;;;;;4993243;28;20274;-68
2021/09/11 04:01:54;;;;;;;9.07;4.17;;;;;;;;;;4995182;28;20014;-68
2021/09/11 04:04:20;;;;;;;4.68;3.67;;;;;;;;;;4995293;28;20280;-68
2021/09/11 04:06:47;;;;;;;8.80;4.40;;;;;;;;;;4995132;28;20029;-68
2021/09/11 04:09:14;;;;;;;4.90;4.35;;;;;;;;;;4992727;28;20372;-68
2021/09/11 04:11:40;;;;;;;6.13;3.90;;;;;;;;;;4991002;28;20019;-68
2021/09/11 04:14:05;;;;;;;6.70;3.50;;;;;;;;;;4995246;28;20022;-68
2021/09/11 04:16:32;;;;;;;5.40;3.67;;;;;;;;;;4994933;28;20050;-68
2021/09/11 04:18:57;;;;;;;6.85;4.18;;;;;;;;;;4994771;28;20270;-69
2021/09/11 04:21:25;;;;;;;5.90;4.30;;;;;;;;;;4994203;28;20439;-69
2021/09/11 04:23:50;;;;;;;4.03;3.58;;;;;;;;;;4992444;28;20269;-69
2021/09/11 04:26:18;;;;;;;4.68;4.10;;;;;;;;;;4994458;28;20402;-69
2021/09/11 04:28:43;;;;;;;5.90;4.35;;;;;;;;;;5010398;28;20355;-68
2021/09/11 04:31:11;;;;;;;5.27;4.47;;;;;;;;;;4994583;28;20026;-69
2021/09/11 04:33:38;;;;;;;6.45;4.20;;;;;;;;;;4994877;28;20285;-68
2021/09/11 04:36:03;;;;;;;9.65;4.40;;;;;;;;;;4995625;28;20440;-68
2021/09/11 04:38:29;;;;;;;5.38;4.43;;;;;;;;;;4994919;28;20022;-68
2021/09/11 04:40:54;;;;;;;4.33;3.73;;;;;;;;;;4990582;28;20122;-68
2021/09/11 04:43:19;;;;;;;5.87;4.10;;;;;;;;;;4995283;28;20265;-68
2021/09/11 04:45:44;;;;;;;7.43;4.50;;;;;;;;;;4991921;28;20590;-68
2021/09/11 04:48:10;;;;;;;5.28;3.90;;;;;;;;;;4994419;28;20033;-69
2021/09/11 04:50:35;;;;;;;5.90;3.90;;;;;;;;;;5010248;28;20061;-69
2021/09/11 04:53:01;;;;;;;6.78;4.10;;;;;;;;;;4984579;28;20030;-70
2021/09/11 04:55:26;;;;;;;7.25;3.90;;;;;;;;;;4987189;28;20382;-69
2021/09/11 04:57:53;;;;;;;6.32;4.38;;;;;;;;;;4984410;28;20097;-69
2021/09/11 05:00:19;;;;;;;5.75;4.13;;;;;;;;;;4982062;28;20436;-69
2021/09/11 05:02:46;;;;;;;7.40;3.83;;;;;;;;;;4996800;28;20025;-69
2021/09/11 05:05:14;;;;;;;7.13;4.30;;;;;;;;;;4994562;28;20026;-69
2021/09/11 05:07:39;;;;;;;7.38;4.40;;;;;;;;;;4988867;28;20026;-69
2021/09/11 05:10:05;;;;;;;6.88;4.28;;;;;;;;;;4986336;28;20053;-70
2021/09/11 05:12:30;;;;;;;5.75;4.38;;;;;;;;;;4983765;28;20046;-66
2021/09/11 05:14:55;;;;;;;4.53;4.00;;;;;;;;;;4986479;28;20018;-65
2021/09/11 05:17:20;;;;;;;6.15;3.65;;;;;;;;;;4984782;28;20254;-64
2021/09/11 05:19:50;;;;;;;4.82;4.10;;;;;;;;;;4984821;28;20022;-64
2021/09/11 05:22:18;;;;;;;7.97;4.70;;;;;;;;;;4988358;28;20030;-65
2021/09/11 05:24:43;;;;;;;5.82;4.15;;;;;;;;;;4995257;28;20453;-65
2021/09/11 05:27:08;;;;;;;6.40;4.43;;;;;;;;;;4994109;28;20018;-65
2021/09/11 05:29:36;;;;;;;5.87;4.40;;;;;;;;;;4995006;28;20269;-65
2021/09/11 05:32:03;;;;;;;6.32;5.15;;;;;;;;;;4994046;28;20257;-66
2021/09/11 05:34:30;;;;;;;6.75;4.35;;;;;;;;;;4993462;28;20092;-65
2021/09/11 05:36:55;;;;;;;11.70;5.13;;;;;;;;;;4994009;28;20455;-65
2021/09/11 05:39:22;;;;;;;7.13;4.83;;;;;;;;;;4993340;28;20293;-65
2021/09/11 05:41:48;;;;;;;6.32;5.35;;;;;;;;;;5009819;28;20341;-65
2021/09/11 05:44:13;;;;;;;6.53;4.60;;;;;;;;;;4993226;28;20408;-65
2021/09/11 05:46:38;;;;;;;7.10;5.17;;;;;;;;;;4994289;28;20691;-66
2021/09/11 05:49:06;;;;;;;5.83;5.00;;;;;;;;;;4994124;28;20774;-65
2021/09/11 05:51:34;;;;;;;7.55;5.28;;;;;;;;;;5009928;28;20296;-65
2021/09/11 05:53:59;;;;;;;5.90;5.00;;;;;;;;;;4992588;28;20023;-67
2021/09/11 05:56:25;;;;;;;5.97;4.37;;;;;;;;;;5009780;28;20033;-65
2021/09/11 05:58:50;;;;;;;8.37;5.63;;;;;;;;;;4989795;28;20337;-66
2021/09/11 06:01:15;;;;;;;6.73;5.30;;;;;;;;;;4977314;28;20305;-66
2021/09/11 06:03:40;;;;;;;8.18;5.30;;;;;;;;;;4978156;28;20269;-66
2021/09/11 06:06:06;;;;;;;6.40;4.80;;;;;;;;;;5009632;28;20034;-67
2021/09/11 06:08:31;;;;;;;7.28;4.65;;;;;;;;;;4990806;28;20045;-67
2021/09/11 06:10:58;;;;;;;9.00;5.35;;;;;;;;;;4993473;28;20038;-67
2021/09/11 06:13:23;;;;;;;5.20;4.53;;;;;;;;;;5009555;28;20023;-67
2021/09/11 06:15:49;;;;;;;7.65;4.68;;;;;;;;;;4994168;28;20435;-65
2021/09/11 06:18:14;;;;;;;8.70;4.37;;;;;;;;;;4993580;28;20299;-65
2021/09/11 06:20:39;;;;;;;9.97;4.53;;;;;;;;;;4992786;28;20282;-66
2021/09/11 06:23:04;;;;;;;14.93;5.00;;;;;;;;;;4993248;28;20710;-69
2021/09/11 06:25:32;;;;;;;7.57;5.07;;;;;;;;;;4993036;28;20273;-64
2021/09/11 06:27:57;;;;;;;6.75;4.05;;;;;;;;;;4993814;28;20376;-71
2021/09/11 06:30:23;;;;;;;4.38;3.97;;;;;;;;;;4991156;28;20153;-75
2021/09/11 06:32:48;;;;;;;7.88;4.10;;;;;;;;;;4993835;28;20029;-75
2021/09/11 06:35:13;;;;;;;9.80;4.60;;;;;;;;;;4992933;28;20033;-76
2021/09/11 06:37:39;;;;;;;5.90;4.20;;;;;;;;;;4993477;28;20461;-74
2021/09/11 06:40:04;;;;;;;8.90;4.63;;;;;;;;;;4993846;28;20773;-74
2021/09/11 06:42:30;;;;;;;7.28;4.15;;;;;;;;;;4994516;28;20328;-73
2021/09/11 06:44:55;;;;;;;7.28;5.15;;;;;;;;;;4997991;28;20018;-73
2021/09/11 06:47:20;;;;;;;4.93;3.97;;;;;;;;;;4997053;28;20061;-73
2021/09/11 06:49:45;;;;;;;6.87;5.13;;;;;;;;;;4996894;28;20293;-73
2021/09/11 06:52:13;;;;;;;9.23;5.18;;;;;;;;;;4996758;28;20015;-73
2021/09/11 06:54:38;;;;;;;7.57;5.25;;;;;;;;;;4997417;28;20023;-73
2021/09/11 06:57:04;;;;;;;7.63;5.47;;;;;;;;;;4996349;28;20026;-73
2021/09/11 06:59:29;;;;;;;6.88;5.35;;;;;;;;;;4997171;28;20454;-73
2021/09/11 07:01:55;;;;;;;7.82;5.30;;;;;;;;;;4997395;28;20014;-73
2021/09/11 07:04:22;;;;;;;9.27;5.00;;;;;;;;;;4996252;28;20029;-74
2021/09/11 07:06:48;;;;;;;7.85;5.28;;;;;;;;;;5012863;28;20023;-73
2021/09/11 07:09:15;;;;;;;8.15;5.18;;;;;;;;;;4997123;28;20427;-73
2021/09/11 07:11:43;;;;;;;8.23;5.55;;;;;;;;;;4997222;28;20361;-74
2021/09/11 07:14:10;;;;;;;7.97;5.28;;;;;;;;;;4977709;28;20037;-73
2021/09/11 07:16:35;;;;;;;9.07;6.22;;;;;;;;;;4974288;28;20367;-73
2021/09/11 07:19:01;;;;;;;6.87;5.33;;;;;;;;;;4977830;28;20030;-73
2021/09/11 07:21:28;;;;;;;11.13;5.40;;;;;;;;;;4972474;28;20351;-73
2021/09/11 07:23:53;;;;;;;8.60;6.25;;;;;;;;;;4972028;28;20658;-74
2021/09/11 07:26:19;;;;;;;7.45;5.65;;;;;;;;;;4971336;28;20038;-72
2021/09/11 07:28:45;;;;;;;9.20;5.90;;;;;;;;;;4974243;28;20422;-73
2021/09/11 07:31:11;;;;;;;7.65;5.40;;;;;;;;;;4970951;28;20059;-74
2021/09/11 07:33:36;;;;;;;8.55;5.22;;;;;;;;;;4968833;28;20059;-72
2021/09/11 07:36:01;;;;;;;7.65;5.20;;;;;;;;;;4955562;28;20689;-71
2021/09/11 07:38:27;;;;;;;8.97;5.43;;;;;;;;;;4982717;28;20391;-71
2021/09/11 07:40:52;;;;;;;7.43;5.23;;;;;;;;;;4975121;28;20273;-72
2021/09/11 07:43:19;;;;;;;5.50;5.00;;;;;;;;;;4968489;28;20314;-73
2021/09/11 07:45:46;;;;;;;11.75;5.50;;;;;;;;;;4968912;28;20274;-73
2021/09/11 07:48:12;;;;;;;7.68;5.63;;;;;;;;;;4969143;28;20440;-72
2021/09/11 07:50:37;;;;;;;8.45;5.10;;;;;;;;;;4968630;28;20088;-72
2021/09/11 07:53:03;;;;;;;6.10;4.83;;;;;;;;;;4964630;28;20019;-73
2021/09/11 07:55:29;;;;;;;6.90;4.80;;;;;;;;;;4978837;28;20282;-72
2021/09/11 07:57:56;;;;;;;7.80;4.10;;;;;;;;;;4973569;28;20193;-73
2021/09/11 08:00:24;;;;;;;5.72;4.20;;;;;;;;;;4965289;28;20050;-73
2021/09/11 08:02:49;;;;;;;5.75;5.05;;;;;;;;;;4972025;28;20038;-74
2021/09/11 08:05:14;;;;;;;8.18;4.40;;;;;;;;;;4963029;28;20360;-73
2021/09/11 08:07:40;;;;;;;8.57;4.60;;;;;;;;;;4966337;28;20449;-72
2021/09/11 08:10:05;;;;;;;6.30;4.45;;;;;;;;;;5000255;28;20286;-71
2021/09/11 08:12:32;;;;;;;9.88;4.30;;;;;;;;;;4987605;28;21944;-72
2021/09/11 08:14:59;;;;;;;7.07;3.90;;;;;;;;;;4994586;28;20018;-73
2021/09/11 08:17:24;;;;;;;6.97;3.88;;;;;;;;;;4998421;28;20030;-73
2021/09/11 08:19:52;;;;;;;4.45;3.40;;;;;;;;;;4995548;28;20027;-73
2021/09/11 08:22:17;;;;;;;4.03;3.38;;;;;;;;;;4995085;28;20058;-73
2021/09/11 08:24:42;;;;;;;6.45;3.47;;;;;;;;;;5013841;28;20022;-73
2021/09/11 08:27:10;;;;;;;4.65;3.15;;;;;;;;;;5012480;28;20029;-73
2021/09/11 08:29:38;;;;;;;5.97;3.28;;;;;;;;;;4998085;28;20076;-74
2021/09/11 08:32:04;;;;;;;6.05;3.40;;;;;;;;;;4993285;28;20018;-75
2021/09/11 08:34:29;;;;;;;8.98;3.58;;;;;;;;;;4992591;28;20439;-74
2021/09/11 08:36:55;;;;;;;5.90;3.58;;;;;;;;;;4994538;28;20032;-73
2021/09/11 08:39:24;;;;;;;6.40;3.55;;;;;;;;;;4995201;28;20015;-74
2021/09/11 08:41:49;;;;;;;6.60;3.50;;;;;;;;;;4994666;28;20022;-73
2021/09/11 08:44:17;;;;;;;6.53;3.53;;;;;;;;;;5010632;28;20032;-74
2021/09/11 08:46:42;;;;;;;7.03;3.80;;;;;;;;;;4993687;28;20038;-73
2021/09/11 08:49:10;;;;;;;11.15;3.50;;;;;;;;;;4994985;28;20033;-73
2021/09/11 08:51:35;;;;;;;5.32;3.60;;;;;;;;;;4994742;28;20049;-74
2021/09/11 08:54:01;;;;;;;9.10;3.42;;;;;;;;;;4991364;28;20028;-74
2021/09/11 08:56:26;;;;;;;5.00;3.20;;;;;;;;;;4976095;28;20029;-68
2021/09/11 08:59:05;;;;;;;3.67;3.10;;;;;;;;;;4983835;28;20368;-71
2021/09/11 09:01:30;;;;;;;6.30;2.83;;;;;;;;;;4994594;28;20312;-71
2021/09/11 09:03:56;;;;;;;4.30;2.78;;;;;;;;;;4994998;28;20053;-70
2021/09/11 09:06:29;;;;;;;3.63;2.70;;;;;;;;;;4993564;28;20473;-70
2021/09/11 09:09:09;;;;;;;4.32;2.65;;;;;;;;;;4995121;28;20297;-69
2021/09/11 09:11:35;;;;;;;3.42;2.38;;;;;;;;;;4993915;28;20033;-70
2021/09/11 09:14:03;;;;;;;3.60;2.20;;;;;;;;;;4994488;28;20093;-70
2021/09/11 09:16:38;;;;;;;3.47;2.40;;;;;;;;;;4995053;28;20351;-70
2021/09/11 09:19:12;;;;;;;2.80;2.10;;;;;;;;;;4993928;28;20025;-69
2021/09/11 09:21:39;;;;;;;3.25;2.20;;;;;;;;;;4994868;28;20410;-72
2021/09/11 09:24:05;;;;;;;3.70;2.17;;;;;;;;;;4994034;28;20099;-67
2021/09/11 09:26:49;;;;;;;4.45;2.10;;;;;;;;;;4994930;28;20014;-69
2021/09/11 09:29:15;;;;;;;3.60;2.08;;;;;;;;;;4994911;28;20404;-69
2021/09/11 09:31:41;;;;;;;4.25;1.95;;;;;;;;;;4994065;28;20102;-69
2021/09/11 09:34:06;;;;;;;4.53;1.90;;;;;;;;;;4994290;28;20027;-71
2021/09/11 09:36:36;;;;;;;3.40;1.90;;;;;;;;;;4993769;28;20030;-66
2021/09/11 09:39:03;;;;;;;3.47;2.00;;;;;;;;;;4986134;28;20061;-66
2021/09/11 09:41:42;;;;;;;6.30;1.95;;;;;;;;;;4994136;28;20019;-67
2021/09/11 09:44:07;;;;;;;4.57;1.70;;;;;;;;;;4994499;28;20037;-66
2021/09/11 09:46:37;;;;;;;6.47;2.00;;;;;;;;;;4993728;28;20030;-66
2021/09/11 09:49:02;;;;;;;3.72;1.80;;;;;;;;;;4993783;28;20432;-66
2021/09/11 09:51:27;;;;;;;2.67;1.60;;;;;;;;;;4992974;28;20029;-66
2021/09/11 09:53:52;;;;;;;3.47;1.65;;;;;;;;;;4993477;28;20419;-68
2021/09/11 09:56:18;;;;;;;4.20;1.57;;;;;;;;;;4994280;28;20067;-68
2021/09/11 09:58:43;;;;;;;2.63;1.70;;;;;;;;;;4992851;28;20686;-68
2021/09/11 10:01:11;;;;;;;3.33;1.60;;;;;;;;;;4993944;28;20444;-67
2021/09/11 10:03:36;;;;;;;3.22;1.60;;;;;;;;;;4993353;28;20026;-68
2021/09/11 10:06:04;;;;;;;4.03;1.55;;;;;;;;;;4994274;28;20025;-68
2021/09/11 10:08:30;;;;;;;1.17;1.08;;;;;;;;;;4993944;28;20037;-68
2021/09/11 10:10:55;;;;;;;3.67;1.58;;;;;;;;;;4993560;28;20052;-68
2021/09/11 10:13:23;;;;;;;3.30;1.33;;;;;;;;;;4993849;28;20450;-68
2021/09/11 10:15:55;;;;;;;2.55;1.42;;;;;;;;;;4993878;28;20031;-69
2021/09/11 10:18:40;;;;;;;3.25;1.38;;;;;;;;;;4993959;28;20026;-68
2021/09/11 10:21:27;;;;;;;3.35;1.40;;;;;;;;;;4994317;28;20018;-68
2021/09/11 10:23:55;;;;;;;4.53;1.48;;;;;;;;;;4993768;28;20022;-68
2021/09/11 10:26:39;;;;;;;1.67;1.23;;;;;;;;;;4994062;28;20041;-68
2021/09/11 10:29:24;;;;;;;3.00;1.45;;;;;;;;;;5008751;28;20034;-68
2021/09/11 10:31:56;;;;;;;3.13;1.30;;;;;;;;;;5009491;28;20034;-69
2021/09/11 10:34:41;;;;;;;5.63;1.30;;;;;;;;;;4993031;28;20031;-68
2021/09/11 10:37:09;;;;;;;2.78;1.30;;;;;;;;;;4993507;28;20018;-68
2021/09/11 10:39:37;;;;;;;2.03;1.30;;;;;;;;;;4992940;28;20069;-68
2021/09/11 10:42:07;;;;;;;2.13;1.23;;;;;;;;;;4993479;28;20036;-68
2021/09/11 10:44:34;;;;;;;2.70;1.17;;;;;;;;;;4993807;28;20529;-68
2021/09/11 10:47:00;;;;;;;3.13;1.20;;;;;;;;;;4993270;28;20018;-66
2021/09/11 10:49:28;;;;;;;2.07;1.17;;;;;;;;;;4992904;28;20030;-65
2021/09/11 10:52:04;;;;;;;2.40;1.00;;;;;;;;;;4993272;28;20706;-67
2021/09/11 10:54:30;;;;;;;2.13;1.25;;;;;;;;;;4993632;28;20034;-65
2021/09/11 10:56:58;;;;;;;1.63;1.00;;;;;;;;;;4991518;28;20014;-67
2021/09/11 10:59:25;;;;;;;1.80;1.30;;;;;;;;;;4992966;28;20050;-66
2021/09/11 11:01:50;;;;;;;4.97;1.40;;;;;;;;;;4993200;28;20503;-66
2021/09/11 11:04:21;;;;;;;2.63;1.33;;;;;;;;;;4993641;28;20150;-66
2021/09/11 11:06:46;;;;;;;3.42;1.20;;;;;;;;;;4992553;28;20042;-67
2021/09/11 11:09:13;;;;;;;3.43;1.50;;;;;;;;;;5008737;28;20042;-66
2021/09/11 11:11:40;;;;;;;2.80;1.63;;;;;;;;;;4993430;28;20265;-67
2021/09/11 11:14:06;;;;;;;2.33;1.30;;;;;;;;;;4993342;28;20520;-67
2021/09/11 11:16:44;;;;;;;1.65;1.30;;;;;;;;;;4993558;28;20029;-66
2021/09/11 11:19:09;;;;;;;3.70;1.42;;;;;;;;;;4993180;28;20037;-66
2021/09/11 11:21:37;;;;;;;5.67;1.43;;;;;;;;;;4993440;28;20030;-68
2021/09/11 11:24:03;;;;;;;4.15;1.63;;;;;;;;;;4992271;28;20343;-69
2021/09/11 11:26:30;;;;;;;4.95;1.10;;;;;;;;;;4992282;28;20467;-67
2021/09/11 11:28:56;;;;;;;1.83;1.20;;;;;;;;;;4992405;28;20371;-66
2021/09/11 11:31:23;;;;;;;2.73;1.43;;;;;;;;;;4995764;28;20022;-67
2021/09/11 11:33:49;;;;;;;8.07;1.40;;;;;;;;;;4996618;28;20258;-67
2021/09/11 11:36:19;;;;;;;1.88;1.40;;;;;;;;;;4995948;28;20033;-70
2021/09/11 11:38:44;;;;;;;2.38;1.25;;;;;;;;;;4996381;28;20037;-69
2021/09/11 11:41:09;;;;;;;1.63;1.20;;;;;;;;;;4996293;28;20026;-68
2021/09/11 11:43:36;;;;;;;2.63;1.02;;;;;;;;;;4996294;28;20277;-68
2021/09/11 11:46:02;;;;;;;4.05;1.70;;;;;;;;;;4990849;28;20112;-68
2021/09/11 11:48:27;;;;;;;2.58;1.52;;;;;;;;;;4990721;28;20495;-69
2021/09/11 11:50:53;;;;;;;5.67;1.57;;;;;;;;;;4995336;28;20041;-69
2021/09/11 11:53:21;;;;;;;2.90;1.53;;;;;;;;;;5011676;28;20595;-67
2021/09/11 11:55:49;;;;;;;2.55;1.30;;;;;;;;;;4995611;28;20864;-67
2021/09/11 11:58:14;;;;;;;2.67;1.38;;;;;;;;;;4996131;28;20022;-68
2021/09/11 12:00:40;;;;;;;2.05;1.50;;;;;;;;;;4995517;28;20034;-68
2021/09/11 12:03:08;;;;;;;4.60;1.50;;;;;;;;;;4996074;28;20022;-68
2021/09/11 12:05:41;;;;;;;3.03;1.30;;;;;;;;;;4995794;28;20102;-67
2021/09/11 12:08:08;;;;;;;4.60;1.33;;;;;;;;;;4996429;28;20026;-68
2021/09/11 12:10:33;;;;;;;1.98;1.30;;;;;;;;;;4995973;28;20069;-68
2021/09/11 12:13:05;;;;;;;2.50;1.40;;;;;;;;;;5011802;28;20018;-68
2021/09/11 12:15:32;;;;;;;3.25;1.40;;;;;;;;;;4995033;28;20015;-67
2021/09/11 12:17:59;;;;;;;2.90;1.50;;;;;;;;;;4995959;28;20076;-68
2021/09/11 12:20:25;;;;;;;3.17;1.38;;;;;;;;;;4996014;28;20101;-68
2021/09/11 12:23:05;;;;;;;2.85;1.30;;;;;;;;;;4995182;28;20022;-68
2021/09/11 12:25:49;;;;;;;3.75;1.08;;;;;;;;;;4995476;28;20026;-68
2021/09/11 12:28:36;;;;;;;4.32;1.42;;;;;;;;;;4995921;28;20022;-68
2021/09/11 12:31:02;;;;;;;6.82;1.42;;;;;;;;;;4996162;28;20026;-69
2021/09/11 12:33:27;;;;;;;3.63;1.25;;;;;;;;;;4995765;28;20332;-75
2021/09/11 12:35:55;;;;;;;4.35;1.30;;;;;;;;;;4995990;28;20018;-70
2021/09/11 12:38:20;;;;;;;3.17;1.50;;;;;;;;;;4993935;28;20129;-74
2021/09/11 12:40:48;;;;;;;2.80;1.13;;;;;;;;;;4995390;28;20105;-71
2021/09/11 12:43:13;;;;;;;5.10;1.40;;;;;;;;;;4995049;28;20093;-74
2021/09/11 12:45:38;;;;;;;2.07;1.20;;;;;;;;;;4994794;28;20407;-70
2021/09/11 12:48:07;;;;;;;2.37;1.30;;;;;;;;;;4992599;28;20726;-69
2021/09/11 12:50:32;;;;;;;3.50;1.45;;;;;;;;;;4991906;28;20272;-71
2021/09/11 12:52:57;;;;;;;2.00;1.20;;;;;;;;;;4993972;28;20014;-71
2021/09/11 12:55:25;;;;;;;2.67;1.13;;;;;;;;;;4994531;28;20459;-72
2021/09/11 13:00:25;;;;;;;5.15;1.48;;;;;;;;;;4774153;22;20481;-75
2021/09/11 13:02:50;;;;;;;2.40;1.27;;;;;;;;;;5042276;28;20025;-66
2021/09/11 13:05:16;;;;;;;3.40;1.50;;;;;;;;;;5053519;28;20492;-68
2021/09/11 13:07:41;;;;;;;2.30;1.33;;;;;;;;;;5048482;28;20306;-69
2021/09/11 13:10:09;;;;;;;3.80;1.30;;;;;;;;;;5054611;28;20028;-69
2021/09/11 13:12:36;;;;;;;4.05;1.42;;;;;;;;;;5045986;28;20049;-69
2021/09/11 13:15:01;;;;;;;4.63;1.42;;;;;;;;;;5054659;28;20024;-68
2021/09/11 13:17:29;;;;;;;3.65;1.30;;;;;;;;;;5050990;28;20414;-72
2021/09/11 13:19:54;;;;;;;1.95;1.10;;;;;;;;;;5052809;28;20361;-69
2021/09/11 13:22:22;;;;;;;2.27;1.37;;;;;;;;;;5054609;28;20028;-68
2021/09/11 13:24:48;;;;;;;2.65;1.27;;;;;;;;;;5033697;28;20433;-69
2021/09/11 13:27:13;;;;;;;2.25;1.30;;;;;;;;;;5053423;28;20067;-80
2021/09/11 13:29:38;;;;;;;1.93;1.10;;;;;;;;;;5051420;28;20025;-73
2021/09/11 13:32:04;;;;;;;3.70;1.20;;;;;;;;;;5049973;28;20255;-74
2021/09/11 13:34:30;;;;;;;2.58;1.17;;;;;;;;;;5050004;28;20475;-70
2021/09/11 13:36:56;;;;;;;2.67;1.27;;;;;;;;;;5045737;28;20451;-72
2021/09/11 13:39:21;;;;;;;5.95;1.30;;;;;;;;;;5053534;28;20104;-74
2021/09/11 13:41:46;;;;;;;1.95;1.13;;;;;;;;;;5045726;28;20020;-73
2021/09/11 13:44:12;;;;;;;2.05;1.20;;;;;;;;;;5049077;28;20024;-69
2021/09/11 13:46:39;;;;;;;3.77;1.30;;;;;;;;;;5049799;28;20107;-70
2021/09/11 13:49:05;;;;;;;2.88;1.30;;;;;;;;;;5051761;28;20302;-63
2021/09/11 13:51:30;;;;;;;2.17;1.27;;;;;;;;;;5034961;28;20433;-75
2021/09/11 13:53:57;;;;;;;2.73;1.07;;;;;;;;;;5053498;28;20262;-73
2021/09/11 13:56:22;;;;;;;2.50;1.05;;;;;;;;;;5053972;28;20041;-67
2021/09/11 13:58:48;;;;;;;2.77;1.27;;;;;;;;;;5053976;28;20028;-68
2021/09/11 14:01:13;;;;;;;1.83;1.08;;;;;;;;;;5070967;28;20283;-67
2021/09/11 14:03:38;;;;;;;1.42;1.10;;;;;;;;;;5056318;28;20028;-66
2021/09/11 14:06:04;;;;;;;2.43;1.20;;;;;;;;;;5074024;28;20047;-71
2021/09/11 14:08:32;;;;;;;4.32;1.08;;;;;;;;;;5073703;28;20670;-67
2021/09/11 14:10:57;;;;;;;1.73;1.10;;;;;;;;;;5067701;28;20021;-70
2021/09/11 14:13:22;;;;;;;4.77;1.30;;;;;;;;;;5073882;28;20028;-64
2021/09/11 14:15:50;;;;;;;3.17;1.10;;;;;;;;;;5069061;28;20263;-64
2021/09/11 14:18:15;;;;;;;2.00;1.13;;;;;;;;;;5073760;28;20259;-65
2021/09/11 14:20:41;;;;;;;2.10;1.25;;;;;;;;;;5073236;28;20085;-64
2021/09/11 14:23:07;;;;;;;1.25;1.00;;;;;;;;;;5055731;28;20498;-66
2021/09/11 14:25:32;;;;;;;3.43;1.23;;;;;;;;;;5073463;28;20111;-66
2021/09/11 14:28:00;;;;;;;1.35;0.88;;;;;;;;;;5073664;28;20412;-66
2021/09/11 14:30:25;;;;;;;2.10;1.20;;;;;;;;;;5073682;28;20031;-66
2021/09/11 14:32:50;;;;;;;1.75;1.10;;;;;;;;;;5073538;28;20025;-65
2021/09/11 14:35:16;;;;;;;1.70;1.10;;;;;;;;;;5056184;28;20016;-66
2021/09/11 14:37:41;;;;;;;2.78;0.70;;;;;;;;;;5073512;28;21096;-65
2021/09/11 14:40:09;;;;;;;2.50;0.80;;;;;;;;;;5070238;28;20467;-66
2021/09/11 14:42:36;;;;;;;1.13;0.80;;;;;;;;;;5073467;28;20088;-66